Time;durP1;ratioP1;P1;durP2;ratioP2;P2;SDS_P1;SDS_P2;PMS_P1;PMS_P2;Temp;Humidity;BMP_temperature;BMP_pressure;BME280_temperature;BME280_humidity;BME280_pressure;Samples;Min_cycle;Max_cycle;Signal;HPM_P1;HPM_P2
2024/01/24 00:02:08;;;;;;;;;;;7.80;91.10;;;;;;5049841;28;20334;-61
2024/01/24 00:04:42;;;;;;;;;;;7.90;91.20;;;;;;5057717;28;19989;-60
2024/01/24 00:07:15;;;;;;;;;;;7.90;91.10;;;;;;5054814;28;20972;-60
2024/01/24 00:09:48;;;;;;;;;;;7.90;91.20;;;;;;5054909;28;20437;-60
2024/01/24 00:12:21;;;;;;;;;;;7.90;91.20;;;;;;5053118;28;20110;-58
2024/01/24 00:14:54;;;;;;;;;;;7.90;91.30;;;;;;5057801;28;19928;-60
2024/01/24 00:17:28;;;;;;;;;;;7.90;91.30;;;;;;5052083;28;19929;-60
2024/01/24 00:20:01;;;;;;;;;;;8.00;91.30;;;;;;5062632;28;19931;-59
2024/01/24 00:22:35;;;;;;;;;;;8.00;91.30;;;;;;5061576;28;19924;-60
2024/01/24 00:25:08;;;;;;;;;;;8.00;91.30;;;;;;5060384;28;19963;-60
2024/01/24 00:27:42;;;;;;;;;;;8.00;91.30;;;;;;5062314;28;20013;-59
2024/01/24 00:30:15;;;;;;;;;;;8.00;91.40;;;;;;5061809;28;19974;-59
2024/01/24 00:32:49;;;;;;;;;;;8.00;91.30;;;;;;5052438;28;20058;-61
2024/01/24 00:35:23;;;;;;;;;;;8.10;91.40;;;;;;5059171;28;20020;-59
2024/01/24 00:37:56;;;;;;;;;;;8.00;91.40;;;;;;5061432;28;19982;-59
2024/01/24 00:40:29;;;;;;;;;;;8.00;91.40;;;;;;5060711;28;20028;-61
2024/01/24 00:43:02;;;;;;;;;;;8.10;91.40;;;;;;5059928;28;19925;-61
2024/01/24 00:45:35;;;;;;;;;;;8.10;91.50;;;;;;5060305;28;19939;-59
2024/01/24 00:48:09;;;;;;;;;;;8.10;91.50;;;;;;5057247;28;19975;-60
2024/01/24 00:50:43;;;;;;;;;;;8.10;91.50;;;;;;5059623;28;19940;-59
2024/01/24 00:53:15;;;;;;;;;;;8.10;91.60;;;;;;5059200;28;19929;-60
2024/01/24 00:55:49;;;;;;;;;;;8.10;91.60;;;;;;5060335;28;20112;-59
2024/01/24 00:58:22;;;;;;;;;;;8.20;91.60;;;;;;5056993;28;20046;-60
2024/01/24 01:00:55;;;;;;;;;;;8.20;91.60;;;;;;5053254;28;19933;-59
2024/01/24 01:03:29;;;;;;;;;;;8.20;91.70;;;;;;5049202;28;19925;-60
2024/01/24 01:06:04;;;;;;;;;;;8.20;91.70;;;;;;5057953;28;19929;-60
2024/01/24 01:08:37;;;;;;;;;;;8.20;91.70;;;;;;5059264;28;19994;-62
2024/01/24 01:11:10;;;;;;;;;;;8.20;91.70;;;;;;5059209;28;19925;-59
2024/01/24 01:13:43;;;;;;;;;;;8.20;91.80;;;;;;5056422;28;19936;-59
2024/01/24 01:16:16;;;;;;;;;;;8.20;91.90;;;;;;5059280;28;19958;-60
2024/01/24 01:18:50;;;;;;;;;;;8.20;91.80;;;;;;5059856;28;20011;-62
2024/01/24 01:21:24;;;;;;;;;;;8.30;91.80;;;;;;5058043;28;19975;-62
2024/01/24 01:23:57;;;;;;;;;;;8.30;91.90;;;;;;5059926;28;19939;-62
2024/01/24 01:26:32;;;;;;;;;;;8.30;91.80;;;;;;5057580;28;19928;-61
2024/01/24 01:29:05;;;;;;;;;;;8.30;91.90;;;;;;5058526;28;20436;-61
2024/01/24 01:31:38;;;;;;;;;;;8.40;91.90;;;;;;5054601;28;19932;-62
2024/01/24 01:34:12;;;;;;;;;;;8.40;91.90;;;;;;5056452;28;19925;-61
2024/01/24 01:36:46;;;;;;;;;;;8.40;92.00;;;;;;5058040;28;20382;-62
2024/01/24 01:39:19;;;;;;;;;;;8.50;91.90;;;;;;5056947;28;19960;-61
2024/01/24 01:41:52;;;;;;;;;;;8.50;92.00;;;;;;5055764;28;19929;-61
2024/01/24 01:44:25;;;;;;;;;;;8.50;91.90;;;;;;5052956;28;19925;-62
2024/01/24 01:46:52;;;;;;;;;;;8.60;92.00;;;;;;5058615;28;19932;-62
2024/01/24 01:49:27;;;;;;;;;;;8.60;92.00;;;;;;5057711;28;19925;-62
2024/01/24 01:52:00;;;;;;;;;;;8.60;91.90;;;;;;5057208;28;20435;-62
2024/01/24 01:54:33;;;;;;;;;;;8.60;92.00;;;;;;5060277;28;19929;-62
2024/01/24 01:57:08;;;;;;;;;;;8.60;92.00;;;;;;5059795;28;20287;-61
2024/01/24 01:59:42;;;;;;;;;;;8.70;92.00;;;;;;5058959;28;19929;-61
2024/01/24 02:02:16;;;;;;;;;;;8.70;92.10;;;;;;5056380;28;19939;-62
2024/01/24 02:04:44;;;;;;;;;;;8.70;92.00;;;;;;5049176;28;20300;-60
2024/01/24 02:07:18;;;;;;;;;;;8.90;91.90;;;;;;5053109;28;19935;-62
2024/01/24 02:09:51;;;;;;;;;;;9.00;91.80;;;;;;5059116;28;19932;-61
2024/01/24 02:12:24;;;;;;;;;;;9.20;91.80;;;;;;5058659;28;19997;-62
2024/01/24 02:14:57;;;;;;;;;;;9.20;91.60;;;;;;5057401;28;20379;-62
2024/01/24 02:17:30;;;;;;;;;;;9.20;91.60;;;;;;5057972;28;19934;-61
2024/01/24 02:20:06;;;;;;;;;;;9.30;91.50;;;;;;5056753;28;19932;-62
2024/01/24 02:22:40;;;;;;;;;;;9.30;91.30;;;;;;5059647;28;19931;-60
2024/01/24 02:25:14;;;;;;;;;;;9.40;91.30;;;;;;5048856;28;19935;-63
2024/01/24 02:27:48;;;;;;;;;;;9.50;91.30;;;;;;5058610;28;19950;-62
2024/01/24 02:30:21;;;;;;;;;;;9.50;91.30;;;;;;5059296;28;20155;-63
2024/01/24 02:32:54;;;;;;;;;;;9.60;91.10;;;;;;5057114;28;19932;-60
2024/01/24 02:35:27;;;;;;;;;;;9.60;91.20;;;;;;5059047;28;20362;-60
2024/01/24 02:38:00;;;;;;;;;;;9.70;90.90;;;;;;5057074;28;19925;-60
2024/01/24 02:40:34;;;;;;;;;;;9.70;90.80;;;;;;5036066;28;19940;-63
2024/01/24 02:43:08;;;;;;;;;;;9.70;90.80;;;;;;5040318;28;19929;-60
2024/01/24 02:45:35;;;;;;;;;;;9.70;90.70;;;;;;5033984;28;20056;-61
2024/01/24 02:48:08;;;;;;;;;;;9.80;90.80;;;;;;5042820;28;19924;-60
2024/01/24 02:50:41;;;;;;;;;;;9.80;90.80;;;;;;5055900;28;19925;-60
2024/01/24 02:53:15;;;;;;;;;;;9.80;90.80;;;;;;5047751;28;19932;-60
2024/01/24 02:55:49;;;;;;;;;;;9.80;90.80;;;;;;5054187;28;19924;-60
2024/01/24 02:58:23;;;;;;;;;;;9.70;90.80;;;;;;5038361;28;19933;-57
2024/01/24 03:00:56;;;;;;;;;;;9.80;90.80;;;;;;5039583;28;19928;-61
2024/01/24 03:03:29;;;;;;;;;;;10.00;90.60;;;;;;5039157;28;19928;-62
2024/01/24 03:06:02;;;;;;;;;;;9.90;90.50;;;;;;5052238;28;19929;-62
2024/01/24 03:08:46;;;;;;;;;;;9.90;90.60;;;;;;5057336;28;19964;-60
2024/01/24 03:11:20;;;;;;;;;;;9.80;90.60;;;;;;5055183;28;19952;-62
2024/01/24 03:13:54;;;;;;;;;;;9.70;90.80;;;;;;5053880;28;19925;-62
2024/01/24 03:16:27;;;;;;;;;;;9.70;90.80;;;;;;5055675;28;19924;-60
2024/01/24 03:19:00;;;;;;;;;;;9.70;90.90;;;;;;5055803;28;19928;-61
2024/01/24 03:21:33;;;;;;;;;;;9.70;91.00;;;;;;5056088;28;20015;-62
2024/01/24 03:24:06;;;;;;;;;;;9.70;91.00;;;;;;5055425;28;19924;-61
2024/01/24 03:26:34;;;;;;;;;;;9.70;91.00;;;;;;5051866;28;20301;-60
2024/01/24 03:29:08;;;;;;;;;;;9.70;91.00;;;;;;5055998;28;19985;-61
2024/01/24 03:31:42;;;;;;;;;;;9.70;91.10;;;;;;5051862;28;19925;-61
2024/01/24 03:34:16;;;;;;;;;;;9.70;91.10;;;;;;5057513;28;19939;-62
2024/01/24 03:36:50;;;;;;;;;;;9.70;91.10;;;;;;5054929;28;19932;-61
2024/01/24 03:39:23;;;;;;;;;;;9.70;91.10;;;;;;5056982;28;20015;-61
2024/01/24 03:41:57;;;;;;;;;;;9.70;91.20;;;;;;5055927;28;20425;-59
2024/01/24 03:44:31;;;;;;;;;;;9.70;91.20;;;;;;5054258;28;19929;-60
2024/01/24 03:47:04;;;;;;;;;;;9.70;91.30;;;;;;5052879;28;19940;-61
2024/01/24 03:49:37;;;;;;;;;;;9.70;91.40;;;;;;5054173;28;19982;-60
2024/01/24 03:52:11;;;;;;;;;;;9.70;91.40;;;;;;5056483;28;19931;-60
2024/01/24 03:54:44;;;;;;;;;;;9.70;91.40;;;;;;5056165;28;19957;-61
2024/01/24 03:57:18;;;;;;;;;;;9.80;91.50;;;;;;5057008;28;19933;-61
2024/01/24 03:59:52;;;;;;;;;;;9.80;91.50;;;;;;5056329;28;19932;-61
2024/01/24 04:02:25;;;;;;;;;;;9.80;91.50;;;;;;5056682;28;19928;-62
2024/01/24 04:04:51;;;;;;;;;;;9.80;91.50;;;;;;5055347;28;19924;-60
2024/01/24 04:07:25;;;;;;;;;;;9.80;91.50;;;;;;5053830;28;19933;-60
2024/01/24 04:09:59;;;;;;;;;;;9.80;91.50;;;;;;5058116;28;19948;-60
2024/01/24 04:12:33;;;;;;;;;;;9.80;91.50;;;;;;5056882;28;19935;-59
2024/01/24 04:15:07;;;;;;;;;;;9.80;91.60;;;;;;5054924;28;20452;-61
2024/01/24 04:17:40;;;;;;;;;;;9.80;91.60;;;;;;5054861;28;20498;-61
2024/01/24 04:20:13;;;;;;;;;;;9.90;91.60;;;;;;5055098;28;19932;-60
2024/01/24 04:22:46;;;;;;;;;;;9.90;91.60;;;;;;5055098;28;19937;-61
2024/01/24 04:25:19;;;;;;;;;;;9.90;91.60;;;;;;5054267;28;19936;-62
2024/01/24 04:27:53;;;;;;;;;;;9.90;91.60;;;;;;5056087;28;19928;-62
2024/01/24 04:30:27;;;;;;;;;;;9.90;91.50;;;;;;5054895;28;19978;-61
2024/01/24 04:33:01;;;;;;;;;;;9.90;91.60;;;;;;5057021;28;19929;-64
2024/01/24 04:35:28;;;;;;;;;;;9.90;91.60;;;;;;5056031;28;19933;-60
2024/01/24 04:38:01;;;;;;;;;;;10.00;91.70;;;;;;5055036;28;20098;-64
2024/01/24 04:40:34;;;;;;;;;;;10.00;91.60;;;;;;5054358;28;20791;-62
2024/01/24 04:43:08;;;;;;;;;;;10.00;91.60;;;;;;5055569;28;19974;-61
2024/01/24 04:45:42;;;;;;;;;;;10.00;91.60;;;;;;5051009;28;20443;-60
2024/01/24 04:48:15;;;;;;;;;;;10.00;91.60;;;;;;5056515;28;20326;-59
2024/01/24 04:50:48;;;;;;;;;;;10.10;91.60;;;;;;5049004;28;20308;-59
2024/01/24 04:53:21;;;;;;;;;;;10.10;91.60;;;;;;5052075;28;19939;-60
2024/01/24 04:55:54;;;;;;;;;;;10.10;91.60;;;;;;5056498;28;19971;-59
2024/01/24 04:58:29;;;;;;;;;;;10.10;91.70;;;;;;5058204;28;19929;-61
2024/01/24 05:01:02;;;;;;;;;;;10.10;91.70;;;;;;5056512;28;20018;-60
2024/01/24 05:03:35;;;;;;;;;;;10.20;91.60;;;;;;5060354;28;20337;-60
2024/01/24 05:06:09;;;;;;;;;;;10.20;91.60;;;;;;5058158;28;20007;-59
2024/01/24 05:08:42;;;;;;;;;;;10.20;91.70;;;;;;5058452;28;20019;-60
2024/01/24 05:11:15;;;;;;;;;;;10.20;91.80;;;;;;5056245;28;19924;-59
2024/01/24 05:13:49;;;;;;;;;;;10.20;92.00;;;;;;5061333;28;19936;-59
2024/01/24 05:16:23;;;;;;;;;;;10.20;92.10;;;;;;5055678;28;19929;-60
2024/01/24 05:18:56;;;;;;;;;;;10.20;92.20;;;;;;5058450;28;19939;-61
2024/01/24 05:21:30;;;;;;;;;;;10.20;92.50;;;;;;5058131;28;19935;-59
2024/01/24 05:24:03;;;;;;;;;;;10.20;92.50;;;;;;5058530;28;20011;-59
2024/01/24 05:26:36;;;;;;;;;;;10.20;92.60;;;;;;5059684;28;19928;-60
2024/01/24 05:29:10;;;;;;;;;;;10.20;92.60;;;;;;5058475;28;19924;-60
2024/01/24 05:31:44;;;;;;;;;;;10.20;92.60;;;;;;5058890;28;19928;-60
2024/01/24 05:34:17;;;;;;;;;;;10.20;92.80;;;;;;5059325;28;19939;-60
2024/01/24 05:36:50;;;;;;;;;;;10.10;92.80;;;;;;5055188;28;19974;-61
2024/01/24 05:39:23;;;;;;;;;;;10.20;92.80;;;;;;5059591;28;19928;-61
2024/01/24 05:41:56;;;;;;;;;;;10.20;92.80;;;;;;5055504;28;20446;-59
2024/01/24 05:44:30;;;;;;;;;;;10.20;92.90;;;;;;5056648;28;19929;-60
2024/01/24 05:47:04;;;;;;;;;;;10.20;92.90;;;;;;5053782;28;19937;-59
2024/01/24 05:49:37;;;;;;;;;;;10.20;93.00;;;;;;5051962;28;19925;-59
2024/01/24 05:52:10;;;;;;;;;;;10.20;93.00;;;;;;5057135;28;19928;-59
2024/01/24 05:54:43;;;;;;;;;;;10.30;93.10;;;;;;5057967;28;20300;-60
2024/01/24 05:57:16;;;;;;;;;;;10.20;93.20;;;;;;5058730;28;19968;-60
2024/01/24 05:59:50;;;;;;;;;;;10.30;93.20;;;;;;5053292;28;20011;-61
2024/01/24 06:02:24;;;;;;;;;;;10.30;93.30;;;;;;5054883;28;20452;-61
2024/01/24 06:04:57;;;;;;;;;;;10.30;93.40;;;;;;5054494;28;20008;-61
2024/01/24 06:07:30;;;;;;;;;;;10.30;93.40;;;;;;5057670;28;19930;-59
2024/01/24 06:10:05;;;;;;;;;;;10.30;93.40;;;;;;5056781;28;20007;-60
2024/01/24 06:12:32;;;;;;;;;;;10.30;93.40;;;;;;5056969;28;20019;-61
2024/01/24 06:15:07;;;;;;;;;;;10.30;93.50;;;;;;5058105;28;19964;-61
2024/01/24 06:17:41;;;;;;;;;;;10.40;93.40;;;;;;5056348;28;19935;-61
2024/01/24 06:20:14;;;;;;;;;;;10.40;93.30;;;;;;5055342;28;19928;-62
2024/01/24 06:22:47;;;;;;;;;;;10.40;93.40;;;;;;5057882;28;19975;-61
2024/01/24 06:25:20;;;;;;;;;;;10.40;93.40;;;;;;5056998;28;19932;-62
2024/01/24 06:27:54;;;;;;;;;;;10.40;93.40;;;;;;5057783;28;19932;-60
2024/01/24 06:30:22;;;;;;;;;;;10.40;93.40;;;;;;5059978;28;19928;-61
2024/01/24 06:32:55;;;;;;;;;;;10.40;93.40;;;;;;5060121;28;20386;-61
2024/01/24 06:35:29;;;;;;;;;;;10.40;93.40;;;;;;5057087;28;20346;-61
2024/01/24 06:38:02;;;;;;;;;;;10.40;93.40;;;;;;5058442;28;19929;-60
2024/01/24 06:40:35;;;;;;;;;;;10.50;93.50;;;;;;5059149;28;19928;-63
2024/01/24 06:43:11;;;;;;;;;;;10.40;93.50;;;;;;5057368;28;19928;-60
2024/01/24 06:45:45;;;;;;;;;;;10.50;93.50;;;;;;5057028;28;19925;-60
2024/01/24 06:48:12;;;;;;;;;;;10.50;93.60;;;;;;5057156;28;19968;-61
2024/01/24 06:50:45;;;;;;;;;;;10.50;93.60;;;;;;5058852;28;19979;-61
2024/01/24 06:53:18;;;;;;;;;;;10.50;93.70;;;;;;5053312;28;19937;-61
2024/01/24 06:55:51;;;;;;;;;;;10.40;93.50;;;;;;5052580;28;20441;-62
2024/01/24 06:58:24;;;;;;;;;;;10.50;93.70;;;;;;5050542;28;20023;-60
2024/01/24 07:00:58;;;;;;;;;;;10.50;93.80;;;;;;5056538;28;19925;-61
2024/01/24 07:03:32;;;;;;;;;;;10.50;93.80;;;;;;5058227;28;19925;-60
2024/01/24 07:06:05;;;;;;;;;;;10.50;93.80;;;;;;5068925;28;19960;-59
2024/01/24 07:08:39;;;;;;;;;;;10.50;93.90;;;;;;5055085;28;19928;-60
2024/01/24 07:11:13;;;;;;;;;;;10.50;94.00;;;;;;5055830;28;20381;-60
2024/01/24 07:13:46;;;;;;;;;;;10.60;94.00;;;;;;5057832;28;20013;-60
2024/01/24 07:16:20;;;;;;;;;;;10.60;94.00;;;;;;5056655;28;19925;-62
2024/01/24 07:18:54;;;;;;;;;;;10.60;93.90;;;;;;5058394;28;19928;-60
2024/01/24 07:21:30;;;;;;;;;;;10.60;93.80;;;;;;5052649;28;20046;-60
2024/01/24 07:24:03;;;;;;;;;;;10.60;93.90;;;;;;5052371;28;19933;-63
2024/01/24 07:26:37;;;;;;;;;;;10.60;93.80;;;;;;5055780;28;19928;-60
2024/01/24 07:29:10;;;;;;;;;;;10.70;93.60;;;;;;5056420;28;20299;-61
2024/01/24 07:31:45;;;;;;;;;;;10.60;93.60;;;;;;5056492;28;19978;-60
2024/01/24 07:34:19;;;;;;;;;;;10.60;93.70;;;;;;5054263;28;19932;-60
2024/01/24 07:36:53;;;;;;;;;;;10.60;93.70;;;;;;5056320;28;19932;-61
2024/01/24 07:39:28;;;;;;;;;;;10.70;93.70;;;;;;5054305;28;19932;-62
2024/01/24 07:42:01;;;;;;;;;;;10.70;93.70;;;;;;5057798;28;19998;-63
2024/01/24 07:44:34;;;;;;;;;;;10.70;93.60;;;;;;5056695;28;20072;-61
2024/01/24 07:47:09;;;;;;;;;;;10.70;93.60;;;;;;5050734;28;19924;-60
2024/01/24 07:49:42;;;;;;;;;;;10.70;93.70;;;;;;5057316;28;19932;-62
2024/01/24 07:52:17;;;;;;;;;;;10.70;93.60;;;;;;5048576;28;19928;-61
2024/01/24 07:54:50;;;;;;;;;;;10.80;93.70;;;;;;5051757;28;19955;-61
2024/01/24 07:57:23;;;;;;;;;;;10.70;93.70;;;;;;5055179;28;19924;-61
2024/01/24 07:59:56;;;;;;;;;;;10.70;93.70;;;;;;5050630;28;19932;-59
2024/01/24 08:02:33;;;;;;;;;;;10.70;93.80;;;;;;5046822;28;19933;-61
2024/01/24 08:05:06;;;;;;;;;;;10.80;93.80;;;;;;5051707;28;19976;-63
2024/01/24 08:07:40;;;;;;;;;;;10.80;93.80;;;;;;5055979;28;19928;-60
2024/01/24 08:10:13;;;;;;;;;;;10.80;93.80;;;;;;5054696;28;19978;-60
2024/01/24 08:12:46;;;;;;;;;;;10.80;93.80;;;;;;5054831;28;19924;-61
2024/01/24 08:15:19;;;;;;;;;;;10.80;93.80;;;;;;5054076;28;19932;-61
2024/01/24 08:17:54;;;;;;;;;;;10.80;93.90;;;;;;5058295;28;19932;-60
2024/01/24 08:20:27;;;;;;;;;;;10.80;93.90;;;;;;5054477;28;19936;-59
2024/01/24 08:23:00;;;;;;;;;;;10.80;94.00;;;;;;5054950;28;19935;-59
2024/01/24 08:25:33;;;;;;;;;;;10.80;94.00;;;;;;5056234;28;20387;-59
2024/01/24 08:28:08;;;;;;;;;;;10.90;94.00;;;;;;5055451;28;20298;-60
2024/01/24 08:30:41;;;;;;;;;;;10.80;94.00;;;;;;5054070;28;19936;-60
2024/01/24 08:33:15;;;;;;;;;;;10.80;94.00;;;;;;5056720;28;20275;-62
2024/01/24 08:35:49;;;;;;;;;;;10.80;94.00;;;;;;5059768;28;19924;-63
2024/01/24 08:38:22;;;;;;;;;;;10.90;94.00;;;;;;5058615;28;19924;-61
2024/01/24 08:40:55;;;;;;;;;;;10.90;94.00;;;;;;5055817;28;20403;-62
2024/01/24 08:43:28;;;;;;;;;;;11.00;94.00;;;;;;5058966;28;20390;-59
2024/01/24 08:46:01;;;;;;;;;;;11.00;93.90;;;;;;5061286;28;20011;-60
2024/01/24 08:48:37;;;;;;;;;;;11.00;93.90;;;;;;5059556;28;19931;-60
2024/01/24 08:51:10;;;;;;;;;;;11.10;93.80;;;;;;5060060;28;19936;-61
2024/01/24 08:53:44;;;;;;;;;;;11.10;93.70;;;;;;5061704;28;19931;-60
2024/01/24 08:56:18;;;;;;;;;;;11.10;93.50;;;;;;5059503;28;19931;-60
2024/01/24 08:58:51;;;;;;;;;;;11.20;93.40;;;;;;5058100;28;19928;-61
2024/01/24 09:01:25;;;;;;;;;;;11.20;93.20;;;;;;5058846;28;20041;-62
2024/01/24 09:03:59;;;;;;;;;;;11.20;93.00;;;;;;5060367;28;19929;-60
2024/01/24 09:06:33;;;;;;;;;;;11.20;92.60;;;;;;5058468;28;19962;-60
2024/01/24 09:09:06;;;;;;;;;;;11.20;92.30;;;;;;5059935;28;19933;-60
2024/01/24 09:11:39;;;;;;;;;;;11.20;92.10;;;;;;5058463;28;19940;-60
2024/01/24 09:14:06;;;;;;;;;;;11.20;91.90;;;;;;5058839;28;19982;-60
2024/01/24 09:16:39;;;;;;;;;;;11.20;91.10;;;;;;5059224;28;19925;-60
2024/01/24 09:19:13;;;;;;;;;;;11.20;90.40;;;;;;5058245;28;20024;-61
2024/01/24 09:21:47;;;;;;;;;;;11.20;90.30;;;;;;5059146;28;20535;-61
2024/01/24 09:24:20;;;;;;;;;;;11.30;89.90;;;;;;5057161;28;19929;-60
2024/01/24 09:26:47;;;;;;;;;;;11.30;88.60;;;;;;5059975;28;19925;-60
2024/01/24 09:29:20;;;;;;;;;;;11.30;88.30;;;;;;5058083;28;19993;-61
2024/01/24 09:31:53;;;;;;;;;;;11.30;88.30;;;;;;5056615;28;20361;-61
2024/01/24 09:34:27;;;;;;;;;;;11.30;87.70;;;;;;5058023;28;19925;-62
2024/01/24 09:37:01;;;;;;;;;;;11.30;87.40;;;;;;5059891;28;19929;-64
2024/01/24 09:39:35;;;;;;;;;;;11.30;86.40;;;;;;5054916;28;19951;-62
2024/01/24 09:42:11;;;;;;;;;;;11.30;86.40;;;;;;5057188;28;19938;-61
2024/01/24 09:44:47;;;;;;;;;;;11.40;85.90;;;;;;5056728;28;19968;-59
2024/01/24 09:47:21;;;;;;;;;;;11.30;84.90;;;;;;5059490;28;19925;-61
2024/01/24 09:49:55;;;;;;;;;;;11.30;84.50;;;;;;5058124;28;19932;-61
2024/01/24 09:52:29;;;;;;;;;;;11.40;83.70;;;;;;5057498;28;19924;-61
2024/01/24 09:55:04;;;;;;;;;;;11.40;84.00;;;;;;5058486;28;19925;-61
2024/01/24 09:57:37;;;;;;;;;;;11.40;83.60;;;;;;5058668;28;19984;-61
2024/01/24 10:00:11;;;;;;;;;;;11.40;83.40;;;;;;5057375;28;19950;-60
2024/01/24 10:02:45;;;;;;;;;;;11.40;82.80;;;;;;5056005;28;19931;-60
2024/01/24 10:05:21;;;;;;;;;;;11.50;81.90;;;;;;5058898;28;20291;-63
2024/01/24 10:07:54;;;;;;;;;;;11.50;81.30;;;;;;5055371;28;19932;-61
2024/01/24 10:10:27;;;;;;;;;;;11.60;80.80;;;;;;5044369;28;20020;-61
2024/01/24 10:13:03;;;;;;;;;;;11.60;80.30;;;;;;5056058;28;19935;-61
2024/01/24 10:15:43;;;;;;;;;;;11.60;80.00;;;;;;5055068;28;19962;-61
2024/01/24 10:18:16;;;;;;;;;;;11.60;80.00;;;;;;5058359;28;20001;-61
2024/01/24 10:20:50;;;;;;;;;;;11.50;79.60;;;;;;5056684;28;19929;-61
2024/01/24 10:23:24;;;;;;;;;;;11.50;79.00;;;;;;5057980;28;19928;-61
2024/01/24 10:25:57;;;;;;;;;;;11.50;78.50;;;;;;5054910;28;19943;-60
2024/01/24 10:28:31;;;;;;;;;;;11.50;77.80;;;;;;5057366;28;19933;-61
2024/01/24 10:31:06;;;;;;;;;;;11.50;77.60;;;;;;5055976;28;19928;-60
2024/01/24 10:33:39;;;;;;;;;;;11.50;76.70;;;;;;5055638;28;19978;-61
2024/01/24 10:36:13;;;;;;;;;;;11.50;76.30;;;;;;5055833;28;19928;-61
2024/01/24 10:38:48;;;;;;;;;;;11.60;76.80;;;;;;5057461;28;19925;-71
2024/01/24 10:41:23;;;;;;;;;;;11.60;76.80;;;;;;5059846;28;20395;-71
2024/01/24 10:43:57;;;;;;;;;;;11.60;76.40;;;;;;5056806;28;19931;-71
2024/01/24 10:46:31;;;;;;;;;;;11.60;76.50;;;;;;5055164;28;19929;-71
2024/01/24 10:49:04;;;;;;;;;;;11.50;77.60;;;;;;5056863;28;19962;-71
2024/01/24 10:51:46;;;;;;;;;;;11.50;77.10;;;;;;5057477;28;19937;-70
2024/01/24 10:54:20;;;;;;;;;;;11.40;78.50;;;;;;5051898;28;19978;-71
2024/01/24 10:56:50;;;;;;;;;;;11.40;77.70;;;;;;5056407;28;19932;-71
2024/01/24 10:59:23;;;;;;;;;;;11.40;78.30;;;;;;5056675;28;19925;-70
2024/01/24 11:01:56;;;;;;;;;;;11.40;78.20;;;;;;5056110;28;19978;-71
2024/01/24 11:04:29;;;;;;;;;;;11.50;78.00;;;;;;5056317;28;19924;-71
2024/01/24 11:07:05;;;;;;;;;;;11.50;78.20;;;;;;5056397;28;20522;-70
2024/01/24 11:09:45;;;;;;;;;;;11.40;78.60;;;;;;5053895;28;20293;-71
2024/01/24 11:12:19;;;;;;;;;;;11.40;78.70;;;;;;5063844;28;19933;-71
2024/01/24 11:14:52;;;;;;;;;;;11.40;79.10;;;;;;5057747;28;20039;-71
2024/01/24 11:17:25;;;;;;;;;;;11.40;79.10;;;;;;5055705;28;20577;-72
2024/01/24 11:19:58;;;;;;;;;;;11.40;78.40;;;;;;5056708;28;20779;-71
2024/01/24 11:22:33;;;;;;;;;;;11.50;78.40;;;;;;5054380;28;19929;-71
2024/01/24 11:25:11;;;;;;;;;;;11.50;77.90;;;;;;5056901;28;19925;-71
2024/01/24 11:27:44;;;;;;;;;;;11.60;77.60;;;;;;5056627;28;19954;-71
2024/01/24 11:30:36;;;;;;;;;;;11.60;77.70;;;;;;5056441;28;19924;-71
2024/01/24 11:33:14;;;;;;;;;;;11.60;77.50;;;;;;5054728;28;21258;-71
2024/01/24 11:36:03;;;;;;;;;;;11.60;77.00;;;;;;5055459;28;21242;-71
2024/01/24 11:38:44;;;;;;;;;;;11.70;76.70;;;;;;5054658;28;19925;-72
2024/01/24 11:41:24;;;;;;;;;;;11.70;77.10;;;;;;5053209;28;20463;-71
2024/01/24 11:43:57;;;;;;;;;;;11.70;76.70;;;;;;5058411;28;19924;-71
2024/01/24 11:46:31;;;;;;;;;;;11.70;76.20;;;;;;5055614;28;19925;-71
2024/01/24 11:49:05;;;;;;;;;;;11.70;76.10;;;;;;5057863;28;19940;-61
2024/01/24 11:51:38;;;;;;;;;;;11.90;75.80;;;;;;5054984;28;19932;-61
2024/01/24 11:54:12;;;;;;;;;;;11.90;75.70;;;;;;5053299;28;19944;-62
2024/01/24 11:56:46;;;;;;;;;;;11.90;75.50;;;;;;5055041;28;19925;-62
2024/01/24 11:59:20;;;;;;;;;;;11.90;75.50;;;;;;5058273;28;19925;-63
2024/01/24 13:20:28;;;;;;;;;;;11.40;78.60;;;;;;5056683;28;23939;-62
2024/01/24 13:23:01;;;;;;;;;;;11.50;77.30;;;;;;5056173;28;20013;-63
2024/01/24 13:25:34;;;;;;;;;;;11.60;77.30;;;;;;5056154;28;19932;-62
2024/01/24 13:28:08;;;;;;;;;;;11.60;76.70;;;;;;5057715;28;19924;-62
2024/01/24 13:30:41;;;;;;;;;;;11.60;76.20;;;;;;5056477;28;19939;-63
2024/01/24 13:33:16;;;;;;;;;;;11.60;76.60;;;;;;5056239;28;19936;-61
2024/01/24 13:35:44;;;;;;;;;;;11.60;75.60;;;;;;5056874;28;20045;-62
2024/01/24 13:38:17;;;;;;;;;;;11.60;75.00;;;;;;5055676;28;19928;-62
2024/01/24 13:40:50;;;;;;;;;;;11.60;75.20;;;;;;5052503;28;20414;-62
2024/01/24 13:43:23;;;;;;;;;;;11.60;74.70;;;;;;5055480;28;19935;-63
2024/01/24 13:45:56;;;;;;;;;;;11.60;74.90;;;;;;5056627;28;19928;-64
2024/01/24 13:48:29;;;;;;;;;;;11.60;74.40;;;;;;5054788;28;19928;-63
2024/01/24 13:51:11;;;;;;;;;;;11.60;74.00;;;;;;5057282;28;20053;-64
2024/01/24 13:53:44;;;;;;;;;;;11.60;73.20;;;;;;5058208;28;19964;-63
2024/01/24 13:56:17;;;;;;;;;;;11.50;73.60;;;;;;5052326;28;19932;-62
2024/01/24 13:58:50;;;;;;;;;;;11.60;72.10;;;;;;5058841;28;19928;-62
2024/01/24 14:01:23;;;;;;;;;;;11.60;71.80;;;;;;5055267;28;19956;-62
2024/01/24 14:03:56;;;;;;;;;;;11.50;71.80;;;;;;5055876;28;19924;-62
2024/01/24 14:06:31;;;;;;;;;;;11.50;73.80;;;;;;5048052;28;19982;-63
2024/01/24 14:09:04;;;;;;;;;;;11.50;74.00;;;;;;5053920;28;19924;-78
2024/01/24 14:11:39;;;;;;;;;;;11.50;73.70;;;;;;5056635;28;20299;-76
2024/01/24 14:14:05;;;;;;;;;;;11.40;75.00;;;;;;5058306;28;20065;-76
2024/01/24 14:16:45;;;;;;;;;;;11.50;74.60;;;;;;5055911;28;19947;-77
2024/01/24 14:19:18;;;;;;;;;;;11.50;74.60;;;;;;5059968;28;19974;-76
2024/01/24 14:21:54;;;;;;;;;;;11.50;73.80;;;;;;5056545;28;20403;-78
2024/01/24 14:24:27;;;;;;;;;;;11.50;73.40;;;;;;5056418;28;19935;-78
2024/01/24 14:26:54;;;;;;;;;;;11.50;74.00;;;;;;5055917;28;19925;-76
2024/01/24 14:29:28;;;;;;;;;;;11.40;73.90;;;;;;5059021;28;20047;-76
2024/01/24 14:32:00;;;;;;;;;;;11.40;75.00;;;;;;5053866;28;19932;-77
2024/01/24 14:34:34;;;;;;;;;;;11.40;74.80;;;;;;5059006;28;19970;-77
2024/01/24 14:37:09;;;;;;;;;;;11.40;75.70;;;;;;5059217;28;19924;-78
2024/01/24 14:39:42;;;;;;;;;;;11.30;76.00;;;;;;5057464;28;19978;-76
2024/01/24 14:42:15;;;;;;;;;;;11.30;76.70;;;;;;5059417;28;19924;-77
2024/01/24 14:44:42;;;;;;;;;;;11.30;76.90;;;;;;5061106;28;19964;-75
2024/01/24 14:47:15;;;;;;;;;;;11.30;75.90;;;;;;5054877;28;19925;-75
2024/01/24 14:49:48;;;;;;;;;;;11.30;76.10;;;;;;5056381;28;19925;-74
2024/01/24 14:52:23;;;;;;;;;;;11.40;75.00;;;;;;5055991;28;19944;-75
2024/01/24 14:54:56;;;;;;;;;;;11.40;73.20;;;;;;5058116;28;19925;-77
2024/01/24 14:57:31;;;;;;;;;;;11.40;72.70;;;;;;5053580;28;20348;-75
2024/01/24 15:00:09;;;;;;;;;;;11.50;72.10;;;;;;5059569;28;19935;-78
2024/01/24 15:02:42;;;;;;;;;;;11.40;73.80;;;;;;5056812;28;19997;-76
2024/01/24 15:05:09;;;;;;;;;;;11.40;73.70;;;;;;5057783;28;19928;-74
2024/01/24 15:07:44;;;;;;;;;;;11.40;74.60;;;;;;5069704;28;20386;-76
2024/01/24 15:10:17;;;;;;;;;;;11.40;74.50;;;;;;5054283;28;19928;-78
2024/01/24 15:12:51;;;;;;;;;;;11.20;74.30;;;;;;5059650;28;20331;-75
2024/01/24 15:15:26;;;;;;;;;;;11.20;74.70;;;;;;5053434;28;19933;-76
2024/01/24 15:17:59;;;;;;;;;;;11.10;74.80;;;;;;5055787;28;19932;-76
2024/01/24 15:20:33;;;;;;;;;;;11.10;74.10;;;;;;5055979;28;19924;-76
2024/01/24 15:23:08;;;;;;;;;;;11.10;75.00;;;;;;5053566;28;19929;-75
2024/01/24 15:25:41;;;;;;;;;;;11.10;75.00;;;;;;5054408;28;19956;-79
2024/01/24 15:28:14;;;;;;;;;;;11.10;74.90;;;;;;5056794;28;19947;-76
2024/01/24 15:30:47;;;;;;;;;;;11.00;74.50;;;;;;5058652;28;19972;-79
2024/01/24 15:33:20;;;;;;;;;;;11.00;74.30;;;;;;5054032;28;19975;-77
2024/01/24 15:35:53;;;;;;;;;;;11.00;74.10;;;;;;5057744;28;19939;-76
2024/01/24 15:38:28;;;;;;;;;;;11.00;74.90;;;;;;5058980;28;20371;-77
2024/01/24 15:41:03;;;;;;;;;;;10.90;75.20;;;;;;5054715;28;19968;-74
2024/01/24 15:43:38;;;;;;;;;;;10.90;74.70;;;;;;5056113;28;19925;-77
2024/01/24 15:46:11;;;;;;;;;;;10.80;75.40;;;;;;5055679;28;19932;-79
2024/01/24 15:48:38;;;;;;;;;;;10.80;75.60;;;;;;5056812;28;19997;-77
2024/01/24 15:51:11;;;;;;;;;;;10.70;75.60;;;;;;5055958;28;19925;-74
2024/01/24 15:53:46;;;;;;;;;;;10.70;75.50;;;;;;5057687;28;19925;-75
2024/01/24 15:56:19;;;;;;;;;;;10.70;75.00;;;;;;5058018;28;19929;-77
2024/01/24 15:58:52;;;;;;;;;;;10.70;73.60;;;;;;5055390;28;19925;-79
2024/01/24 16:01:26;;;;;;;;;;;10.70;74.50;;;;;;5054800;28;19935;-76
2024/01/24 16:03:59;;;;;;;;;;;10.70;74.60;;;;;;5057422;28;19931;-77
2024/01/24 16:06:32;;;;;;;;;;;10.80;74.20;;;;;;5054797;28;19932;-78
2024/01/24 16:09:08;;;;;;;;;;;10.70;74.10;;;;;;5055411;28;19934;-80
2024/01/24 16:11:41;;;;;;;;;;;10.70;73.90;;;;;;5055185;28;19978;-79
2024/01/24 16:14:15;;;;;;;;;;;10.70;72.70;;;;;;5058469;28;20017;-78
2024/01/24 16:16:50;;;;;;;;;;;10.80;72.90;;;;;;5052579;28;19928;-76